Flight Track Log - Related Links

Times and Time Zones

All times are in EDT time to prevent confusion due to time zone crossing. See the LOG6852 flight status page for this flight to view local times or setup timezone preferences in your user account.

Time Position Orientation Groundspeed Altitude Reporting Facility
EDT Latitude Longitude Course Direction KTS MPH feet Rate Location/Type
Mon 08:06:39 AM 57.0140 -7.4300 91° East 1 1 300  Level FlightAware UK
Mon 08:07:15 AM 57.0136 -7.3962 91° East 1 1 700 667 Climbing FlightAware UK
Mon 08:07:51 AM 57.0028 -7.3719 129° Southeast 1 1 1,100 750 Climbing FlightAware UK
Mon 08:08:27 AM 56.9910 -7.3517 137° Southeast 1 1 1,600 667 Climbing FlightAware UK
Mon 08:09:03 AM 56.9817 -7.3249 123° Southeast 1 1 1,900 667 Climbing FlightAware UK
Mon 08:09:39 AM 56.9731 -7.2980 120° Southeast 1 1 2,400 667 Climbing FlightAware UK
Mon 08:10:15 AM 56.9636 -7.2703 122° Southeast 1 1 2,700 667 Climbing FlightAware UK
Mon 08:10:51 AM 56.9524 -7.2428 127° Southeast 1 1 3,200 667 Climbing FlightAware UK
Mon 08:11:27 AM 56.9417 -7.2139 124° Southeast 1 1 3,500 583 Climbing FlightAware UK
Mon 08:12:03 AM 56.9312 -7.1838 122° Southeast 1 1 3,900 583 Climbing FlightAware UK
Mon 08:12:39 AM 56.9189 -7.1504 124° Southeast 1 1 4,200 583 Climbing FlightAware UK
Mon 08:13:15 AM 56.9048 -7.1176 128° Southeast 1 1 4,600 667 Climbing FlightAware UK
Mon 08:13:51 AM 56.8920 -7.0847 125° Southeast 1 1 5,000 417 Climbing FlightAware UK
Mon 08:14:27 AM 56.8799 -7.0507 123° Southeast 1 1 5,100 417 Climbing FlightAware UK
Mon 08:15:03 AM 56.8675 -7.0160 123° Southeast 1 1 5,500 500 Climbing FlightAware UK
Mon 08:15:39 AM 56.8549 -6.9823 124° Southeast 1 1 5,700 417 Climbing FlightAware UK
Mon 08:16:15 AM 56.8424 -6.9486 124° Southeast 1 1 6,000 417 Climbing FlightAware UK
Mon 08:16:51 AM 56.8294 -6.9140 124° Southeast 1 1 6,200 417 Climbing FlightAware UK
Mon 08:17:27 AM 56.8162 -6.8795 125° Southeast 1 1 6,500 417 Climbing FlightAware UK
Mon 08:18:03 AM 56.8033 -6.8448 124° Southeast 1 1 6,700 333 Climbing FlightAware UK
Mon 08:18:39 AM 56.7912 -6.8092 122° Southeast 1 1 6,900 417 Climbing FlightAware UK
Mon 08:19:15 AM 56.7783 -6.7732 123° Southeast 1 1 7,200 417 Climbing FlightAware UK
Mon 08:19:51 AM 56.7647 -6.7376 125° Southeast 1 1 7,400 250 Climbing FlightAware UK
Mon 08:20:27 AM 56.7509 -6.7016 125° Southeast 1 1 7,500 167 Climbing FlightAware UK
Mon 08:21:03 AM 56.7360 -6.6626 125° Southeast 1 1 7,600 83 Climbing FlightAware UK
Mon 08:21:39 AM 56.7217 -6.6236 124° Southeast 1 1 7,600  Level FlightAware UK
Mon 08:22:15 AM 56.7076 -6.5839 123° Southeast 1 1 7,600  Level FlightAware UK
Mon 08:22:51 AM 56.6936 -6.5439 123° Southeast 1 1 7,600  Level FlightAware UK
Mon 08:23:27 AM 56.6798 -6.5045 123° Southeast 1 1 7,600 -83 Level FlightAware UK
Mon 08:24:03 AM 56.6660 -6.4649 122° Southeast 1 1 7,500  Descending FlightAware UK
Mon 08:24:39 AM 56.6519 -6.4253 123° Southeast 1 1 7,600 83 Climbing FlightAware UK
Mon 08:25:15 AM 56.6376 -6.3863 124° Southeast 1 1 7,600 -83 Level FlightAware UK
Mon 08:25:51 AM 56.6231 -6.3476 124° Southeast 1 1 7,500  Descending FlightAware UK
Mon 08:26:27 AM 56.6089 -6.3084 123° Southeast 1 1 7,600 83 Climbing FlightAware UK
Mon 08:27:03 AM 56.5951 -6.2691 123° Southeast 1 1 7,600 -83 Level FlightAware UK
Mon 08:27:39 AM 56.5809 -6.2303 124° Southeast 1 1 7,500 -83 Descending FlightAware UK
Mon 08:28:15 AM 56.5655 -6.1930 127° Southeast 1 1 7,500  Level FlightAware UK
Mon 08:28:51 AM 56.5502 -6.1563 127° Southeast 1 1 7,500 83 Level FlightAware UK
Mon 08:29:27 AM 56.5351 -6.1188 126° Southeast 1 1 7,600 83 Climbing FlightAware UK
Mon 08:30:03 AM 56.5205 -6.0808 125° Southeast 1 1 7,600  Level FlightAware UK
Mon 08:30:39 AM 56.5060 -6.0427 125° Southeast 1 1 7,600 -83 Level FlightAware UK
Mon 08:31:15 AM 56.4911 -6.0049 126° Southeast 1 1 7,500  Descending FlightAware UK
Mon 08:31:51 AM 56.4765 -5.9669 125° Southeast 1 1 7,600 83 Climbing FlightAware UK
Mon 08:32:27 AM 56.4617 -5.9294 125° Southeast 1 1 7,600  Level FlightAware UK
Mon 08:33:03 AM 56.4469 -5.8917 125° Southeast 1 1 7,600 -83 Level FlightAware UK
Mon 08:33:39 AM 56.4321 -5.8532 125° Southeast 1 1 7,500  Descending FlightAware UK
Mon 08:34:15 AM 56.4170 -5.8149 125° Southeast 1 1 7,600 83 Climbing FlightAware UK
Mon 08:34:51 AM 56.4024 -5.7764 124° Southeast 1 1 7,600 -83 Level FlightAware UK
Mon 08:35:27 AM 56.3877 -5.7374 124° Southeast 1 1 7,500  Descending FlightAware UK
Mon 08:36:03 AM 56.3719 -5.6997 127° Southeast 1 1 7,600 83 Climbing FlightAware UK
Mon 08:36:39 AM 56.3570 -5.6619 125° Southeast 1 1 7,600  Level FlightAware UK
Mon 08:37:15 AM 56.3426 -5.6230 124° Southeast 1 1 7,600  Level FlightAware UK
Mon 08:37:51 AM 56.3283 -5.5836 123° Southeast 1 1 7,600  Level FlightAware UK
Mon 08:38:21 AM 56.3159 -5.5508 124° Southeast 1 1 7,600  Level FlightAware UK
Mon 08:39:09 AM 56.2956 -5.4985 125° Southeast 1 1 7,600 -118 Level FlightAware UK
Mon 08:40:03 AM 56.2732 -5.4397 124° Southeast 1 1 7,400 -125 Descending FlightAware UK
Mon 08:40:45 AM 56.2557 -5.3944 125° Southeast 1 1 7,400 53 Level FlightAware UK
Mon 08:41:57 AM 56.2272 -5.3183 124° Southeast 1 1 7,500 -56 Climbing FlightAware UK
Mon 08:42:33 AM 56.2127 -5.2809 125° Southeast 1 1 7,300 -313 Descending FlightAware UK
Mon 08:43:33 AM 56.1857 -5.2134 126° Southeast 1 1 7,000 -63 Descending FlightAware UK
Mon 08:44:09 AM 56.1707 -5.1753 125° Southeast 1 1 7,200 83 Climbing FlightAware UK
Mon 08:44:45 AM 56.1649 -5.1297 103° East 1 1 7,100 -83 Descending FlightAware UK
Mon 08:45:21 AM 56.1597 -5.0839 102° East 1 1 7,100 -333 Level FlightAware UK
Mon 08:46:15 AM 56.1516 -5.0112 101° East 1 1 6,600 -409 Descending FlightAware UK
Mon 08:47:33 AM 56.1405 -4.9044 101° East 1 1 6,200 -368 Descending FlightAware UK
Mon 08:48:09 AM 56.1352 -4.8552 101° East 1 1 5,900 -500 Descending FlightAware UK
Mon 08:48:45 AM 56.1297 -4.8048 101° East 1 1 5,600 -417 Descending FlightAware UK
Mon 08:49:21 AM 56.1248 -4.7536 100° East 1 1 5,400 -417 Descending FlightAware UK
Mon 08:49:57 AM 56.1203 -4.7028 99° East 1 1 5,100 -500 Descending FlightAware UK
Mon 08:50:33 AM 56.1153 -4.6536 100° East 1 1 4,800 -231 Descending FlightAware UK
Mon 08:51:15 AM 56.1103 -4.5991 99° East 1 1 4,800 67 Level FlightAware UK
Mon 08:52:03 AM 56.1060 -4.5381 97° East 1 1 4,900  Climbing FlightAware UK
Mon 08:53:21 AM 56.0869 -4.4477 111° Southeast 1 1 4,800 -95 Descending FlightAware UK
Mon 08:54:09 AM 56.0737 -4.3934 114° Southeast 1 1 4,700 -71 Descending FlightAware UK
Mon 08:54:45 AM 56.0637 -4.3523 113° Southeast 1 1 4,700 -357 Level FlightAware UK
Mon 08:55:33 AM 56.0491 -4.2948 114° Southeast 1 1 4,200 -611 Descending FlightAware UK
Mon 08:56:33 AM 56.0308 -4.2208 114° Southeast 1 1 3,600 -563 Descending FlightAware UK
Mon 08:57:09 AM 56.0106 -4.2019 152° Southeast 1 1 3,300 -353 Descending FlightAware UK
Mon 08:58:15 AM 55.9755 -4.2386 210° Southwest 1 1 3,000 -667 Descending FlightAware UK
Mon 08:59:15 AM 55.9488 -4.2900 227° Southwest 1 1 1,900 -1,059 Descending FlightAware UK
Mon 08:59:57 AM 55.9298 -4.3255 226° Southwest 1 1 1,200 -769 Descending FlightAware UK
Mon 09:00:33 AM 55.9161 -4.3510 226° Southwest 1 1 900 -583 Descending FlightAware UK
Mon 09:01:09 AM 55.9038 -4.3732 225° Southwest 1 1 500 -538 Descending FlightAware UK
Mon 09:01:51 AM 55.8935 -4.3932 227° Southwest 1 1 200 -429 Descending FlightAware UK

Login

Don't have an account? Register now (free) for customized features, flight alerts, and more!